Time;durP1;ratioP1;P1;durP2;ratioP2;P2;SDS_P1;SDS_P2;PMS_P1;PMS_P2;Temp;Humidity;BMP_temperature;BMP_pressure;BME280_temperature;BME280_humidity;BME280_pressure;Samples;Min_cycle;Max_cycle;Signal;HPM_P1;HPM_P2
2023/11/27 14:37:56;;;;;;;;;;;-3.00;99.90;;;;;;5114577;27;19916;-93
2023/11/27 14:40:22;;;;;;;;;;;-3.00;99.90;;;;;;5113334;28;19912;-92
2023/11/27 14:42:49;;;;;;;;;;;-3.00;99.90;;;;;;5111716;28;20414;-92
2023/11/27 14:45:15;;;;;;;;;;;-3.00;99.90;;;;;;5112847;28;19982;-93
2023/11/27 14:47:45;;;;;;;;;;;-2.90;99.90;;;;;;5112723;28;19912;-93
2023/11/27 14:50:16;;;;;;;;;;;-2.90;99.90;;;;;;5111649;28;19960;-93
2023/11/27 14:52:44;;;;;;;;;;;-2.80;99.90;;;;;;5110662;28;19916;-92
2023/11/27 14:55:12;;;;;;;;;;;-2.70;99.90;;;;;;5102162;28;19966;-91
2023/11/27 14:57:40;;;;;;;;;;;-2.70;99.90;;;;;;5093323;28;19956;-92
2023/11/27 15:00:18;;;;;;;;;;;-2.60;99.90;;;;;;5095752;28;19909;-91
2023/11/27 15:02:45;;;;;;;;;;;-2.60;99.90;;;;;;5093186;28;20288;-90
2023/11/27 15:05:13;;;;;;;;;;;-2.50;99.90;;;;;;5091380;28;19909;-92
2023/11/27 15:07:39;;;;;;;;;;;-2.50;99.90;;;;;;5091499;28;19938;-90
2023/11/27 15:10:06;;;;;;;;;;;-2.50;99.90;;;;;;5092096;28;19912;-92
2023/11/27 15:12:32;;;;;;;;;;;-2.40;99.90;;;;;;5091606;28;19909;-93
2023/11/27 15:14:57;;;;;;;;;;;-2.40;99.90;;;;;;5093174;28;19959;-91
2023/11/27 15:17:23;;;;;;;;;;;-2.40;99.90;;;;;;5092106;28;20377;-90
2023/11/27 15:19:51;;;;;;;;;;;-2.40;99.90;;;;;;5125320;28;20365;-90
2023/11/27 15:22:19;;;;;;;;;;;-2.50;99.90;;;;;;5111858;28;19908;-88
2023/11/27 15:24:44;;;;;;;;;;;-2.50;99.90;;;;;;5133435;28;19981;-89
2023/11/27 15:27:10;;;;;;;;;;;-2.50;99.90;;;;;;5129848;28;20360;-90
2023/11/27 15:29:35;;;;;;;;;;;-2.40;99.90;;;;;;5112120;28;20416;-89
2023/11/27 15:32:01;;;;;;;;;;;-2.40;99.90;;;;;;5122923;28;19908;-91
2023/11/27 15:34:27;;;;;;;;;;;-2.40;99.90;;;;;;5129934;28;19954;-91
2023/11/27 15:36:53;;;;;;;;;;;-2.40;99.90;;;;;;5116352;28;19928;-91
2023/11/27 15:39:32;;;;;;;;;;;-2.40;99.90;;;;;;5111578;28;20276;-91
2023/11/27 15:41:58;;;;;;;;;;;-2.40;99.90;;;;;;5116555;28;20455;-92
2023/11/27 15:44:23;;;;;;;;;;;-2.40;99.90;;;;;;5110264;28;19958;-91
2023/11/27 15:46:49;;;;;;;;;;;-2.40;99.90;;;;;;5110179;28;19934;-93
2023/11/27 15:49:17;;;;;;;;;;;-2.40;99.90;;;;;;5096213;28;19912;-92
2023/11/27 15:51:43;;;;;;;;;;;-2.40;99.90;;;;;;5096308;28;19908;-92
2023/11/27 15:54:09;;;;;;;;;;;-2.40;99.90;;;;;;5096307;28;19908;-91
2023/11/27 15:56:35;;;;;;;;;;;-2.40;99.90;;;;;;5098400;28;19961;-92
2023/11/27 15:59:01;;;;;;;;;;;-2.40;99.90;;;;;;5098604;28;19920;-92
2023/11/27 16:01:28;;;;;;;;;;;-2.40;99.90;;;;;;5094035;28;19963;-90
2023/11/27 16:03:55;;;;;;;;;;;-2.50;99.90;;;;;;5095326;28;19927;-90
2023/11/27 16:06:21;;;;;;;;;;;-2.50;99.90;;;;;;5095181;28;19924;-91
2023/11/27 16:08:46;;;;;;;;;;;-2.40;99.90;;;;;;5097481;28;19908;-91
2023/11/27 16:11:12;;;;;;;;;;;-2.40;99.90;;;;;;5096879;28;19957;-91
2023/11/27 16:13:38;;;;;;;;;;;-2.40;99.90;;;;;;5095230;28;19908;-89
2023/11/27 16:16:04;;;;;;;;;;;-2.50;99.90;;;;;;5095163;28;19975;-92
2023/11/27 16:18:30;;;;;;;;;;;-2.50;99.90;;;;;;5095309;28;19908;-93
2023/11/27 16:20:57;;;;;;;;;;;-2.50;99.90;;;;;;5095289;28;19908;-90
2023/11/27 16:23:26;;;;;;;;;;;-2.50;99.90;;;;;;5094993;28;19992;-91
2023/11/27 16:25:54;;;;;;;;;;;-2.50;99.90;;;;;;5096177;28;19912;-92
2023/11/27 16:28:21;;;;;;;;;;;-2.60;99.90;;;;;;5095238;28;20365;-90
2023/11/27 16:30:47;;;;;;;;;;;-2.60;99.90;;;;;;5100175;28;19916;-94
2023/11/27 16:33:13;;;;;;;;;;;-2.60;99.90;;;;;;5095278;28;19908;-90
2023/11/27 16:35:40;;;;;;;;;;;-2.70;99.90;;;;;;5099430;28;20403;-90
2023/11/27 16:38:06;;;;;;;;;;;-2.70;99.90;;;;;;5098187;28;20412;-92
2023/11/27 16:40:35;;;;;;;;;;;-2.70;99.90;;;;;;5095809;28;20430;-91
2023/11/27 16:43:01;;;;;;;;;;;-2.70;99.90;;;;;;5107315;28;19918;-90
2023/11/27 16:45:27;;;;;;;;;;;-2.70;99.90;;;;;;5113716;28;19912;-90
2023/11/27 16:47:56;;;;;;;;;;;-2.70;99.90;;;;;;5098711;28;20333;-89
2023/11/27 16:50:26;;;;;;;;;;;-2.70;99.90;;;;;;5093484;28;19950;-89
2023/11/27 16:52:52;;;;;;;;;;;-2.80;99.90;;;;;;5096712;28;19912;-88
2023/11/27 16:55:18;;;;;;;;;;;-2.80;99.90;;;;;;5094861;28;20356;-89
2023/11/27 16:57:45;;;;;;;;;;;-2.80;99.90;;;;;;5109349;28;19923;-89
2023/11/27 17:00:11;;;;;;;;;;;-2.80;99.90;;;;;;5088972;28;20597;-90
2023/11/27 17:02:38;;;;;;;;;;;-2.70;99.90;;;;;;5083520;28;19923;-90
2023/11/27 17:05:07;;;;;;;;;;;-2.80;99.90;;;;;;5094681;28;20267;-89
2023/11/27 17:07:35;;;;;;;;;;;-2.80;99.90;;;;;;5083077;28;19923;-92
2023/11/27 17:10:00;;;;;;;;;;;-2.70;99.90;;;;;;5089277;28;19912;-92
2023/11/27 17:12:26;;;;;;;;;;;-2.70;99.90;;;;;;5092124;28;19912;-91
2023/11/27 17:14:52;;;;;;;;;;;-2.70;99.90;;;;;;5095645;28;19912;-90
2023/11/27 17:19:54;;;;;;;;;;;-2.70;99.90;;;;;;5186415;23;19913;-93
2023/11/27 17:34:39;;;;;;;;;;;-2.80;99.90;;;;;;5118729;27;19912;-95
2023/11/27 17:37:12;;;;;;;;;;;-2.00;99.90;;;;;;5092444;28;19955;-95
2023/11/27 17:39:38;;;;;;;;;;;-2.00;99.90;;;;;;5074371;28;19917;-94
2023/11/27 17:42:03;;;;;;;;;;;-2.20;99.90;;;;;;5088608;28;19931;-93
2023/11/27 17:44:29;;;;;;;;;;;-2.30;99.90;;;;;;5095775;28;20349;-94
2023/11/27 17:46:54;;;;;;;;;;;-2.30;99.90;;;;;;5090880;28;19912;-93
2023/11/27 17:49:20;;;;;;;;;;;-2.40;99.90;;;;;;5121442;28;19899;-93
2023/11/27 17:51:46;;;;;;;;;;;-2.50;99.90;;;;;;5120513;28;19955;-93
2023/11/27 17:54:13;;;;;;;;;;;-2.60;99.90;;;;;;5096598;28;19915;-90
2023/11/27 17:56:39;;;;;;;;;;;-2.60;99.90;;;;;;5091927;28;19962;-89
2023/11/27 17:59:04;;;;;;;;;;;-2.70;99.90;;;;;;5092164;28;19912;-93
2023/11/27 18:01:30;;;;;;;;;;;-2.70;99.90;;;;;;5092345;28;19908;-89
2023/11/27 18:03:55;;;;;;;;;;;-2.70;99.90;;;;;;5091078;28;19916;-90
2023/11/27 18:06:21;;;;;;;;;;;-2.80;99.90;;;;;;5090781;28;21229;-88
2023/11/27 18:08:46;;;;;;;;;;;-2.80;99.90;;;;;;5092191;28;19919;-89
2023/11/27 18:11:12;;;;;;;;;;;-2.80;99.90;;;;;;5109297;28;20272;-89
2023/11/27 18:13:40;;;;;;;;;;;-2.90;99.90;;;;;;5109987;28;20272;-89
2023/11/27 18:16:07;;;;;;;;;;;-3.00;99.90;;;;;;5108836;28;20303;-89
2023/11/27 18:18:34;;;;;;;;;;;-3.00;99.90;;;;;;5085841;28;19947;-89
2023/11/27 18:20:59;;;;;;;;;;;-3.10;99.90;;;;;;5090958;28;19913;-93
2023/11/27 18:23:25;;;;;;;;;;;-3.10;99.90;;;;;;5089817;28;19912;-89
2023/11/27 18:25:51;;;;;;;;;;;-3.20;99.90;;;;;;5088465;28;19916;-90
2023/11/27 18:28:16;;;;;;;;;;;-3.20;99.90;;;;;;5090395;28;19942;-88
2023/11/27 18:30:42;;;;;;;;;;;-3.20;99.90;;;;;;5090304;28;20341;-89
2023/11/27 18:33:07;;;;;;;;;;;-3.30;99.90;;;;;;5088864;28;20395;-89
2023/11/27 18:35:34;;;;;;;;;;;-3.30;99.90;;;;;;5074124;28;19917;-88
2023/11/27 18:37:59;;;;;;;;;;;-3.30;99.90;;;;;;5076828;28;19913;-88
2023/11/27 18:40:25;;;;;;;;;;;-3.30;99.90;;;;;;5075667;28;19958;-88
2023/11/27 18:42:51;;;;;;;;;;;-3.30;99.90;;;;;;5075421;28;19920;-94
2023/11/27 18:45:19;;;;;;;;;;;-3.30;99.90;;;;;;5078771;28;19915;-93
2023/11/27 18:47:45;;;;;;;;;;;-3.20;99.90;;;;;;5076612;28;20382;-87
2023/11/27 18:50:12;;;;;;;;;;;-3.20;99.90;;;;;;5075581;28;19940;-94
2023/11/27 18:52:37;;;;;;;;;;;-3.20;99.90;;;;;;5075253;28;19912;-88
2023/11/27 18:55:09;;;;;;;;;;;-3.20;99.90;;;;;;5079020;28;19913;-94
2023/11/27 18:57:35;;;;;;;;;;;-3.30;99.90;;;;;;5085712;28;19909;-89
2023/11/27 19:00:04;;;;;;;;;;;-3.30;99.90;;;;;;5086987;28;19920;-93
2023/11/27 19:02:31;;;;;;;;;;;-3.30;99.90;;;;;;5077556;28;19912;-93
2023/11/27 19:04:57;;;;;;;;;;;-3.20;99.90;;;;;;5079379;28;19912;-95
2023/11/27 19:07:23;;;;;;;;;;;-3.30;99.90;;;;;;5078443;28;19913;-95
2023/11/27 19:09:48;;;;;;;;;;;-3.30;99.90;;;;;;5077970;28;19912;-93
2023/11/27 19:12:14;;;;;;;;;;;-3.30;99.90;;;;;;5074470;28;20369;-95
2023/11/27 19:14:40;;;;;;;;;;;-3.30;99.90;;;;;;5074006;28;20055;-94
2023/11/27 19:17:05;;;;;;;;;;;-3.40;99.90;;;;;;5075545;28;20022;-93
2023/11/27 19:19:31;;;;;;;;;;;-3.30;99.90;;;;;;5075785;28;19915;-95
2023/11/27 19:21:56;;;;;;;;;;;-3.40;99.90;;;;;;5075452;28;19912;-93
2023/11/27 19:24:24;;;;;;;;;;;-3.30;99.90;;;;;;5076614;28;19915;-94
2023/11/27 19:26:49;;;;;;;;;;;-3.40;99.90;;;;;;5075490;28;19919;-94
2023/11/27 19:29:15;;;;;;;;;;;-3.40;99.90;;;;;;5077301;28;19912;-92
2023/11/27 19:31:40;;;;;;;;;;;-3.40;99.90;;;;;;5077569;28;19948;-92
2023/11/27 19:34:06;;;;;;;;;;;-3.40;99.90;;;;;;5075353;28;19970;-92
2023/11/27 19:36:32;;;;;;;;;;;-3.40;99.90;;;;;;5074635;28;19912;-92
2023/11/27 19:38:57;;;;;;;;;;;-3.50;99.90;;;;;;5075405;28;20079;-93
2023/11/27 19:41:23;;;;;;;;;;;-3.50;99.90;;;;;;5077715;28;19944;-95
2023/11/27 19:43:49;;;;;;;;;;;-3.60;99.90;;;;;;5075220;28;20007;-88
2023/11/27 20:54:06;;;;;;;;;;;-5.40;99.90;;;;;;5114021;27;19916;-87
2023/11/27 20:56:33;;;;;;;;;;;-5.40;99.90;;;;;;5131497;28;19918;-88
